Portada
METAR-TAF:

METAR-TAF

Aeroports :

Txungking, Xina

latitud: 29-31N, longitud: 106-29E, altitud: 351 m

Observació

L'informe es va fer fa 35 minuts, a les 14:00 UTC
Vent 2 kt del Nord-Oest
Temperatura 8°C
Humitat 61%
Pressió 1018 hPa
Visibilitat: 6000 m

METAR: ZUCK 151400Z 31001MPS 6000 NSC 08/01 Q1018 NOSIG

Hora: 22:35 (14:35 UTC)

Pronòstic

L'informe es va fer fa 5 hores i 32 minuts, a les 09:03 UTC
Pronòstic vàlid del 15 a les 12 UTC al 16 a les 12 UTC
Vent 6 kt del Oest
Visibilitat: 5000 m
Escasses núvols a una alçada de 4000 ft
boirina
Evolucionant progressivament
l' 15 a les 17 UTC al 15 a les 18 UTC
Visibilitat: 3100 m
pluja
Temporalment
l' 16 a les 03 UTC al 16 a les 07 UTC
xàfecs de pluja

TAF: ZUCK 150903Z 1512/1612 27003MPS 5000 BR FEW040 TX08/1607Z TN05/1522Z BECMG 1517/1518 3100 -RA TEMPO 1603/1607 SHRA

Observacions i pronòstics meteorològics de més de 4000 aeroports (METAR i TAF).

Les estacions disponibles són els punts grocs i vermells al mapa.

Posi el ratolí al punt desitjat per veure el nom de l'estació.

Feu clic per veure les observacions i els pronòstics meteorològics.

Per canviar el mapa: feu clic els botons verds amb una creu de color negre per apropar; al botó verd amb un guió per allunyar la imatge; o en les fletxes verdes per a mapes adjacents.


METAR-TAF: